Time;durP1;ratioP1;P1;durP2;ratioP2;P2;SDS_P1;SDS_P2;PMS_P1;PMS_P2;Temp;Humidity;BMP_temperature;BMP_pressure;BME280_temperature;BME280_humidity;BME280_pressure;Samples;Min_cycle;Max_cycle;Signal;HPM_P1;HPM_P2
2021/04/25 00:00:11;;;;;;;1.40;0.93;;;;;;;;;;5020285;28;20494;-67
2021/04/25 00:02:37;;;;;;;0.80;0.60;;;;;;;;;;4994361;28;20412;-67
2021/04/25 00:05:04;;;;;;;0.70;0.60;;;;;;;;;;4992211;28;20478;-67
2021/04/25 00:07:30;;;;;;;0.70;0.53;;;;;;;;;;5009801;28;20448;-67
2021/04/25 00:09:56;;;;;;;4.53;1.03;;;;;;;;;;5011414;28;21014;-68
2021/04/25 00:12:22;;;;;;;0.70;0.47;;;;;;;;;;5011679;28;20401;-66
2021/04/25 00:14:48;;;;;;;1.30;0.67;;;;;;;;;;5011600;28;20440;-67
2021/04/25 00:17:14;;;;;;;2.17;0.80;;;;;;;;;;5011641;28;20903;-67
2021/04/25 00:19:40;;;;;;;0.70;0.50;;;;;;;;;;5011149;28;20787;-67
2021/04/25 00:22:06;;;;;;;0.90;0.60;;;;;;;;;;5011726;28;20887;-67
2021/04/25 00:24:32;;;;;;;0.70;0.50;;;;;;;;;;5011267;28;20424;-66
2021/04/25 00:26:58;;;;;;;0.70;0.50;;;;;;;;;;5011533;28;20518;-66
2021/04/25 00:29:24;;;;;;;1.77;0.70;;;;;;;;;;5011192;28;20407;-66
2021/04/25 00:31:50;;;;;;;0.77;0.50;;;;;;;;;;5010999;28;20531;-66
2021/04/25 00:34:16;;;;;;;0.80;0.60;;;;;;;;;;5011205;28;20572;-66
2021/04/25 00:36:43;;;;;;;0.90;0.60;;;;;;;;;;5009258;28;20426;-67
2021/04/25 00:39:08;;;;;;;0.97;0.87;;;;;;;;;;5005822;28;20408;-65
2021/04/25 00:41:34;;;;;;;0.87;0.87;;;;;;;;;;5010273;28;20411;-66
2021/04/25 00:44:00;;;;;;;1.30;0.77;;;;;;;;;;5009560;28;20925;-67
2021/04/25 00:46:26;;;;;;;0.70;0.50;;;;;;;;;;5010215;28;20462;-67
2021/04/25 00:48:52;;;;;;;0.70;0.50;;;;;;;;;;5010956;28;20526;-67
2021/04/25 00:51:21;;;;;;;0.80;0.80;;;;;;;;;;5011313;28;20470;-67
2021/04/25 00:53:47;;;;;;;1.40;0.80;;;;;;;;;;5011155;28;20465;-68
2021/04/25 00:56:14;;;;;;;0.70;0.50;;;;;;;;;;5011035;28;20906;-68
2021/04/25 00:58:41;;;;;;;0.87;0.70;;;;;;;;;;5023104;28;20790;-67
2021/04/25 01:01:06;;;;;;;0.90;0.73;;;;;;;;;;5005852;28;20411;-67
2021/04/25 01:03:32;;;;;;;0.80;0.77;;;;;;;;;;4996552;28;20429;-67
2021/04/25 01:05:58;;;;;;;0.70;0.50;;;;;;;;;;5007573;28;20436;-67
2021/04/25 01:08:24;;;;;;;0.90;0.70;;;;;;;;;;5005347;28;20419;-68
2021/04/25 01:10:50;;;;;;;0.70;0.60;;;;;;;;;;5010224;28;20454;-67
2021/04/25 01:13:16;;;;;;;1.23;1.13;;;;;;;;;;5007498;28;20929;-67
2021/04/25 01:15:42;;;;;;;0.70;0.50;;;;;;;;;;5011359;28;20438;-67
2021/04/25 01:18:08;;;;;;;0.80;0.70;;;;;;;;;;5011439;28;20412;-66
2021/04/25 01:20:34;;;;;;;0.70;0.60;;;;;;;;;;5013949;28;20486;-67
2021/04/25 01:23:00;;;;;;;0.80;0.60;;;;;;;;;;5015097;28;20484;-68
2021/04/25 01:25:27;;;;;;;0.70;0.50;;;;;;;;;;5014850;28;20789;-67
2021/04/25 01:27:56;;;;;;;0.80;0.50;;;;;;;;;;5013668;28;20433;-68
2021/04/25 01:30:24;;;;;;;1.10;0.50;;;;;;;;;;5014981;28;20442;-66
2021/04/25 01:32:50;;;;;;;0.70;0.50;;;;;;;;;;5014567;28;20399;-66
2021/04/25 01:35:21;;;;;;;0.70;0.50;;;;;;;;;;5015032;28;20997;-66
2021/04/25 01:37:48;;;;;;;1.30;1.03;;;;;;;;;;5014591;28;20414;-67
2021/04/25 01:40:14;;;;;;;0.70;0.47;;;;;;;;;;5014676;28;20407;-67
2021/04/25 01:42:40;;;;;;;1.53;1.23;;;;;;;;;;5014497;28;20425;-66
2021/04/25 01:45:07;;;;;;;0.70;0.50;;;;;;;;;;5014301;28;20442;-66
2021/04/25 01:47:33;;;;;;;0.70;0.60;;;;;;;;;;5013776;28;20430;-66
2021/04/25 01:49:59;;;;;;;0.70;0.50;;;;;;;;;;5013988;28;20483;-66
2021/04/25 01:52:25;;;;;;;0.83;0.60;;;;;;;;;;5014757;28;20479;-66
2021/04/25 01:54:51;;;;;;;1.03;0.60;;;;;;;;;;5014039;28;20478;-67
2021/04/25 01:57:17;;;;;;;0.70;0.50;;;;;;;;;;5015074;28;20486;-68
2021/04/25 01:59:43;;;;;;;0.80;0.50;;;;;;;;;;5034208;28;20391;-67
2021/04/25 02:02:09;;;;;;;1.27;0.60;;;;;;;;;;5034512;28;20906;-67
2021/04/25 02:04:34;;;;;;;2.63;1.23;;;;;;;;;;5034048;28;20399;-67
2021/04/25 02:07:00;;;;;;;0.70;0.50;;;;;;;;;;5014801;28;20446;-66
2021/04/25 02:09:26;;;;;;;1.03;0.73;;;;;;;;;;5013236;28;20479;-66
2021/04/25 02:11:52;;;;;;;0.90;0.60;;;;;;;;;;5013977;28;20459;-67
2021/04/25 02:14:18;;;;;;;0.80;0.60;;;;;;;;;;5013820;28;20492;-66
2021/04/25 02:16:44;;;;;;;1.00;0.73;;;;;;;;;;5013858;28;20660;-66
2021/04/25 02:19:10;;;;;;;0.70;0.50;;;;;;;;;;5013656;28;20479;-67
2021/04/25 02:21:36;;;;;;;0.70;0.40;;;;;;;;;;5013125;28;20427;-67
2021/04/25 02:24:02;;;;;;;1.23;0.77;;;;;;;;;;5013547;28;20419;-67
2021/04/25 02:26:28;;;;;;;0.70;0.50;;;;;;;;;;5013423;28;20448;-67
2021/04/25 02:28:54;;;;;;;2.50;0.70;;;;;;;;;;5013819;28;20404;-67
2021/04/25 02:31:20;;;;;;;1.17;0.80;;;;;;;;;;5012542;28;20965;-68
2021/04/25 02:33:46;;;;;;;12.63;1.77;;;;;;;;;;5013494;28;20402;-67
2021/04/25 02:36:12;;;;;;;0.70;0.50;;;;;;;;;;5013620;28;20794;-68
2021/04/25 02:38:38;;;;;;;0.80;0.50;;;;;;;;;;5013164;28;20922;-67
2021/04/25 02:41:04;;;;;;;0.70;0.50;;;;;;;;;;5010331;28;20431;-67
2021/04/25 02:43:30;;;;;;;0.80;0.60;;;;;;;;;;5001417;28;20420;-68
2021/04/25 02:45:56;;;;;;;1.43;0.80;;;;;;;;;;5013308;28;20431;-68
2021/04/25 02:48:22;;;;;;;1.07;0.90;;;;;;;;;;5013543;28;20397;-68
2021/04/25 02:50:48;;;;;;;1.00;0.80;;;;;;;;;;5012672;28;20455;-68
2021/04/25 02:53:14;;;;;;;0.70;0.50;;;;;;;;;;5012662;28;20887;-67
2021/04/25 02:55:40;;;;;;;0.77;0.50;;;;;;;;;;5012648;28;20518;-68
2021/04/25 02:58:06;;;;;;;0.77;0.53;;;;;;;;;;5020220;28;20462;-66
2021/04/25 03:00:32;;;;;;;0.70;0.47;;;;;;;;;;5032803;28;20401;-68
2021/04/25 03:02:59;;;;;;;1.93;1.00;;;;;;;;;;5014372;28;20772;-67
2021/04/25 03:05:25;;;;;;;0.70;0.40;;;;;;;;;;5012998;28;20796;-67
2021/04/25 03:07:52;;;;;;;0.80;0.60;;;;;;;;;;5012441;28;20419;-67
2021/04/25 03:10:18;;;;;;;0.73;0.60;;;;;;;;;;5012507;28;20459;-67
2021/04/25 03:12:45;;;;;;;1.67;1.57;;;;;;;;;;5013080;28;20403;-67
2021/04/25 03:15:11;;;;;;;0.70;0.50;;;;;;;;;;5012277;28;21060;-67
2021/04/25 03:17:37;;;;;;;0.70;0.50;;;;;;;;;;5013151;28;20466;-67
2021/04/25 03:20:05;;;;;;;0.70;0.50;;;;;;;;;;5011976;28;20423;-67
2021/04/25 03:22:31;;;;;;;0.80;0.67;;;;;;;;;;5012917;28;20727;-67
2021/04/25 03:24:57;;;;;;;0.70;0.50;;;;;;;;;;5012529;28;20418;-67
2021/04/25 03:27:23;;;;;;;1.27;0.77;;;;;;;;;;5012564;28;20884;-67
2021/04/25 03:29:49;;;;;;;0.80;0.70;;;;;;;;;;5012455;28;20408;-67
2021/04/25 03:32:15;;;;;;;0.70;0.50;;;;;;;;;;5010923;28;20463;-68
2021/04/25 03:34:41;;;;;;;1.43;0.80;;;;;;;;;;5012200;28;20970;-68
2021/04/25 03:37:07;;;;;;;0.80;0.60;;;;;;;;;;5012198;28;20930;-67
2021/04/25 03:39:33;;;;;;;0.80;0.60;;;;;;;;;;5011986;28;20406;-67
2021/04/25 03:41:59;;;;;;;0.70;0.50;;;;;;;;;;5012031;28;20412;-66
2021/04/25 03:44:25;;;;;;;0.70;0.50;;;;;;;;;;5011310;28;20452;-66
2021/04/25 03:46:51;;;;;;;4.57;1.10;;;;;;;;;;5011843;28;20466;-69
2021/04/25 03:49:20;;;;;;;0.70;0.50;;;;;;;;;;5011847;28;20922;-67
2021/04/25 03:51:47;;;;;;;0.70;0.60;;;;;;;;;;5012108;28;20455;-66
2021/04/25 03:54:13;;;;;;;0.70;0.50;;;;;;;;;;5011757;28;20776;-66
2021/04/25 03:56:40;;;;;;;0.70;0.50;;;;;;;;;;5011943;28;20465;-65
2021/04/25 03:59:06;;;;;;;0.70;0.60;;;;;;;;;;5026134;28;20419;-66
2021/04/25 04:01:32;;;;;;;0.70;0.50;;;;;;;;;;5031586;28;20906;-66
2021/04/25 04:03:57;;;;;;;0.70;0.50;;;;;;;;;;5031727;28;20437;-66
2021/04/25 04:06:23;;;;;;;1.00;0.70;;;;;;;;;;5020012;28;20442;-67
2021/04/25 04:08:49;;;;;;;0.70;0.50;;;;;;;;;;5011640;28;20980;-67
2021/04/25 04:11:15;;;;;;;0.70;0.50;;;;;;;;;;5009998;28;20488;-67
2021/04/25 04:13:41;;;;;;;0.70;0.53;;;;;;;;;;5011232;28;20774;-67
2021/04/25 04:16:07;;;;;;;7.60;1.80;;;;;;;;;;5012095;28;20909;-66
2021/04/25 04:18:33;;;;;;;1.07;0.60;;;;;;;;;;5011178;28;20413;-67
2021/04/25 04:20:59;;;;;;;0.83;0.73;;;;;;;;;;5011431;28;20399;-66
2021/04/25 04:23:25;;;;;;;1.37;1.00;;;;;;;;;;5011640;28;20414;-67
2021/04/25 04:25:51;;;;;;;0.80;0.50;;;;;;;;;;5011531;28;20645;-67
2021/04/25 04:28:17;;;;;;;1.10;1.00;;;;;;;;;;5011457;28;20902;-67
2021/04/25 04:30:43;;;;;;;0.70;0.50;;;;;;;;;;5010597;28;20553;-67
2021/04/25 04:33:09;;;;;;;0.80;0.70;;;;;;;;;;5011707;28;20502;-67
2021/04/25 04:35:35;;;;;;;1.87;0.77;;;;;;;;;;5011373;28;20497;-67
2021/04/25 04:38:01;;;;;;;2.90;0.80;;;;;;;;;;5011357;28;20419;-67
2021/04/25 04:40:27;;;;;;;0.70;0.60;;;;;;;;;;5011298;28;20404;-66
2021/04/25 04:42:53;;;;;;;0.70;0.50;;;;;;;;;;5011026;28;20757;-66
2021/04/25 04:45:19;;;;;;;0.80;0.50;;;;;;;;;;5011478;28;20505;-66
2021/04/25 04:47:46;;;;;;;0.83;0.60;;;;;;;;;;5010921;28;20405;-67
2021/04/25 04:50:13;;;;;;;1.03;0.60;;;;;;;;;;5011010;28;20403;-66
2021/04/25 04:52:39;;;;;;;0.80;0.60;;;;;;;;;;5011419;28;20439;-66
2021/04/25 04:55:06;;;;;;;0.80;0.50;;;;;;;;;;5010302;28;20447;-66
2021/04/25 04:57:31;;;;;;;1.53;0.90;;;;;;;;;;5014410;28;20413;-67
2021/04/25 04:59:57;;;;;;;0.73;0.60;;;;;;;;;;5010969;28;20419;-68
2021/04/25 05:02:23;;;;;;;0.80;0.50;;;;;;;;;;5011106;28;20443;-66
2021/04/25 05:04:49;;;;;;;0.70;0.50;;;;;;;;;;5010297;28;20488;-66
2021/04/25 05:07:15;;;;;;;0.70;0.50;;;;;;;;;;5010784;28;20445;-66
2021/04/25 05:09:41;;;;;;;0.70;0.60;;;;;;;;;;5011119;28;20400;-67
2021/04/25 05:12:08;;;;;;;0.70;0.50;;;;;;;;;;5010160;28;20560;-67
2021/04/25 05:14:34;;;;;;;0.93;0.73;;;;;;;;;;5011195;28;20541;-67
2021/04/25 05:17:00;;;;;;;0.80;0.70;;;;;;;;;;5010817;28;20436;-66
2021/04/25 05:19:26;;;;;;;0.97;0.60;;;;;;;;;;5010888;28;20410;-65
2021/04/25 05:21:52;;;;;;;1.37;0.70;;;;;;;;;;5011149;28;20437;-66
2021/04/25 05:24:18;;;;;;;0.70;0.50;;;;;;;;;;5008393;28;20414;-66
2021/04/25 05:26:44;;;;;;;0.70;0.50;;;;;;;;;;5006128;28;21046;-66
2021/04/25 05:29:10;;;;;;;0.80;0.70;;;;;;;;;;5007676;28;20510;-66
2021/04/25 05:31:36;;;;;;;0.70;0.53;;;;;;;;;;5007412;28;20490;-66
2021/04/25 05:34:02;;;;;;;2.20;0.60;;;;;;;;;;4992452;28;20526;-66
2021/04/25 05:36:28;;;;;;;0.70;0.53;;;;;;;;;;4997791;28;20801;-67
2021/04/25 05:38:54;;;;;;;0.70;0.50;;;;;;;;;;5008954;28;20421;-67
2021/04/25 05:41:20;;;;;;;0.80;0.60;;;;;;;;;;5012979;28;20498;-66
2021/04/25 05:43:47;;;;;;;4.43;0.70;;;;;;;;;;5007950;28;20427;-67
2021/04/25 05:46:14;;;;;;;0.70;0.50;;;;;;;;;;5009649;28;20436;-66
2021/04/25 05:48:41;;;;;;;0.70;0.50;;;;;;;;;;5006779;28;20420;-65
2021/04/25 05:51:07;;;;;;;0.70;0.50;;;;;;;;;;4999292;28;20460;-66
2021/04/25 05:53:32;;;;;;;0.70;0.50;;;;;;;;;;5008220;28;20891;-66
2021/04/25 05:55:58;;;;;;;1.57;0.70;;;;;;;;;;5009785;28;20428;-67
2021/04/25 05:58:24;;;;;;;1.00;0.87;;;;;;;;;;5013434;28;20507;-66
2021/04/25 06:00:50;;;;;;;0.80;0.80;;;;;;;;;;5009736;28;20810;-66
2021/04/25 06:03:16;;;;;;;0.80;0.63;;;;;;;;;;5011935;28;20440;-66
2021/04/25 06:05:42;;;;;;;2.23;1.37;;;;;;;;;;5011473;28;20808;-66
2021/04/25 06:08:08;;;;;;;0.90;0.60;;;;;;;;;;5008125;28;20779;-66
2021/04/25 06:10:34;;;;;;;8.30;1.10;;;;;;;;;;5011193;28;20458;-66
2021/04/25 06:13:00;;;;;;;0.80;0.70;;;;;;;;;;5010642;28;20400;-66
2021/04/25 06:15:26;;;;;;;0.80;0.60;;;;;;;;;;5005814;28;20416;-66
2021/04/25 06:17:52;;;;;;;0.93;0.93;;;;;;;;;;5006891;28;20409;-66
2021/04/25 06:20:19;;;;;;;2.80;0.93;;;;;;;;;;5006040;28;20405;-66
2021/04/25 06:22:45;;;;;;;1.47;0.63;;;;;;;;;;5002299;28;20411;-67
2021/04/25 06:25:11;;;;;;;5.47;2.13;;;;;;;;;;5002800;28;20483;-66
2021/04/25 06:27:37;;;;;;;1.43;0.80;;;;;;;;;;5008195;28;20421;-65
2021/04/25 06:30:04;;;;;;;0.70;0.60;;;;;;;;;;5014814;28;20421;-66
2021/04/25 06:32:30;;;;;;;0.70;0.40;;;;;;;;;;5029680;28;20427;-66
2021/04/25 06:34:56;;;;;;;2.10;0.80;;;;;;;;;;5018966;28;20418;-67
2021/04/25 06:37:21;;;;;;;1.53;1.43;;;;;;;;;;5024319;28;20814;-66
2021/04/25 06:39:47;;;;;;;0.70;0.50;;;;;;;;;;5024373;28;20425;-66
2021/04/25 06:42:13;;;;;;;0.70;0.53;;;;;;;;;;5025440;28;20410;-66
2021/04/25 06:44:39;;;;;;;4.80;1.17;;;;;;;;;;5030060;28;20441;-66
2021/04/25 06:47:05;;;;;;;1.00;0.67;;;;;;;;;;5016043;28;20531;-66
2021/04/25 06:49:31;;;;;;;2.10;0.63;;;;;;;;;;5012734;28;20537;-66
2021/04/25 06:51:59;;;;;;;0.70;0.60;;;;;;;;;;5023943;28;20458;-65
2021/04/25 06:54:25;;;;;;;0.80;0.70;;;;;;;;;;5031828;28;20412;-65
2021/04/25 06:56:51;;;;;;;0.70;0.40;;;;;;;;;;5010938;28;20959;-67
2021/04/25 06:59:17;;;;;;;1.27;1.10;;;;;;;;;;5025547;28;21195;-65
2021/04/25 07:01:43;;;;;;;0.80;0.70;;;;;;;;;;5029504;28;20559;-68
2021/04/25 07:04:09;;;;;;;1.67;1.07;;;;;;;;;;5019477;28;20422;-65
2021/04/25 07:06:35;;;;;;;0.87;0.70;;;;;;;;;;5032144;28;20430;-66
2021/04/25 07:09:01;;;;;;;1.07;0.80;;;;;;;;;;5023819;28;20417;-66
2021/04/25 07:11:27;;;;;;;0.70;0.50;;;;;;;;;;5027490;28;20451;-66
2021/04/25 07:13:53;;;;;;;0.70;0.53;;;;;;;;;;5020285;28;20409;-66
2021/04/25 07:16:19;;;;;;;0.90;0.60;;;;;;;;;;5026003;28;20440;-67
2021/04/25 07:18:45;;;;;;;0.90;0.60;;;;;;;;;;5029669;28;20395;-66
2021/04/25 07:21:11;;;;;;;0.70;0.50;;;;;;;;;;5024131;28;20419;-66
2021/04/25 07:23:38;;;;;;;0.70;0.40;;;;;;;;;;5021979;28;20410;-66
2021/04/25 07:26:04;;;;;;;0.70;0.40;;;;;;;;;;5031596;28;20446;-68
2021/04/25 07:28:30;;;;;;;0.87;0.63;;;;;;;;;;5012077;28;20413;-66
2021/04/25 07:30:56;;;;;;;0.80;0.53;;;;;;;;;;5021534;28;20978;-65
2021/04/25 07:33:22;;;;;;;0.73;0.57;;;;;;;;;;5015321;28;20438;-65
2021/04/25 07:35:48;;;;;;;0.90;0.80;;;;;;;;;;5017078;28;20508;-66
2021/04/25 07:38:14;;;;;;;0.80;0.60;;;;;;;;;;5016369;28;20416;-67
2021/04/25 07:40:41;;;;;;;0.70;0.50;;;;;;;;;;5013203;28;20709;-66
2021/04/25 07:43:07;;;;;;;0.70;0.40;;;;;;;;;;5012329;28;20407;-66
2021/04/25 07:45:34;;;;;;;1.10;0.60;;;;;;;;;;5015214;28;21139;-66
2021/04/25 07:48:00;;;;;;;1.67;0.60;;;;;;;;;;5015799;28;20470;-66
2021/04/25 07:50:26;;;;;;;0.70;0.40;;;;;;;;;;5017193;28;21028;-66
2021/04/25 07:52:52;;;;;;;0.70;0.40;;;;;;;;;;5013862;28;20788;-68
2021/04/25 07:55:18;;;;;;;0.70;0.43;;;;;;;;;;5008254;28;20420;-67
2021/04/25 07:57:44;;;;;;;0.70;0.47;;;;;;;;;;5020323;28;20443;-67
2021/04/25 08:00:11;;;;;;;0.70;0.40;;;;;;;;;;5023772;28;20432;-67
2021/04/25 08:02:37;;;;;;;0.70;0.40;;;;;;;;;;5030633;28;20830;-68
2021/04/25 08:05:04;;;;;;;1.17;0.60;;;;;;;;;;5013070;28;20503;-67
2021/04/25 08:07:30;;;;;;;0.70;0.50;;;;;;;;;;5017379;28;20409;-68
2021/04/25 08:09:56;;;;;;;0.70;0.40;;;;;;;;;;5015701;28;21030;-68
2021/04/25 08:12:22;;;;;;;0.70;0.40;;;;;;;;;;5012310;28;20440;-67
2021/04/25 08:14:48;;;;;;;0.80;0.50;;;;;;;;;;5017249;28;20408;-68
2021/04/25 08:17:14;;;;;;;0.70;0.40;;;;;;;;;;5026035;28;20422;-68
2021/04/25 08:19:42;;;;;;;0.70;0.50;;;;;;;;;;5021007;28;20431;-68
2021/04/25 08:22:09;;;;;;;0.70;0.40;;;;;;;;;;5032913;28;20423;-68
2021/04/25 08:24:35;;;;;;;0.70;0.40;;;;;;;;;;5014650;28;20417;-68
2021/04/25 08:27:01;;;;;;;0.80;0.50;;;;;;;;;;5016144;28;20943;-68
2021/04/25 08:29:27;;;;;;;1.20;0.70;;;;;;;;;;5016797;28;20419;-68
2021/04/25 08:31:53;;;;;;;0.80;0.50;;;;;;;;;;5014359;28;20521;-68
2021/04/25 08:34:20;;;;;;;0.70;0.50;;;;;;;;;;5030389;28;20824;-67
2021/04/25 08:36:45;;;;;;;1.03;0.50;;;;;;;;;;5019747;28;20512;-68
2021/04/25 08:39:12;;;;;;;0.90;0.60;;;;;;;;;;5025378;28;20870;-68
2021/04/25 08:41:41;;;;;;;0.70;0.40;;;;;;;;;;5028567;28;20903;-67
2021/04/25 08:44:07;;;;;;;0.80;0.55;;;;;;;;;;5018777;28;20419;-68
2021/04/25 08:46:34;;;;;;;0.70;0.50;;;;;;;;;;5019570;28;20189;-67
2021/04/25 08:49:00;;;;;;;0.70;0.50;;;;;;;;;;5026754;28;20429;-68
2021/04/25 08:51:26;;;;;;;0.70;0.50;;;;;;;;;;5023530;28;21045;-68
2021/04/25 08:53:52;;;;;;;0.90;0.70;;;;;;;;;;5006473;28;20459;-69
2021/04/25 08:56:19;;;;;;;0.70;0.40;;;;;;;;;;5013877;28;20424;-68
2021/04/25 08:58:47;;;;;;;0.93;0.67;;;;;;;;;;5020099;28;20421;-68
2021/04/25 09:01:13;;;;;;;1.67;0.97;;;;;;;;;;5023806;28;20410;-68
2021/04/25 09:03:39;;;;;;;0.70;0.40;;;;;;;;;;5024654;28;20420;-68
2021/04/25 09:06:07;;;;;;;0.70;0.50;;;;;;;;;;5031740;28;20441;-68
2021/04/25 09:08:47;;;;;;;0.80;0.50;;;;;;;;;;5009504;28;20410;-68
2021/04/25 09:11:24;;;;;;;0.80;0.50;;;;;;;;;;5023650;28;20478;-68
2021/04/25 09:14:10;;;;;;;0.90;0.60;;;;;;;;;;5032034;28;20414;-68
2021/04/25 09:16:36;;;;;;;1.30;0.60;;;;;;;;;;5012362;28;20471;-68
2021/04/25 09:19:02;;;;;;;10.50;5.83;;;;;;;;;;5029049;28;20418;-68
2021/04/25 09:21:28;;;;;;;1.13;0.80;;;;;;;;;;5025664;28;20468;-68
2021/04/25 09:23:53;;;;;;;0.80;0.60;;;;;;;;;;5032200;28;20924;-68
2021/04/25 09:26:19;;;;;;;0.70;0.50;;;;;;;;;;5018388;28;21008;-67
2021/04/25 09:29:01;;;;;;;0.70;0.50;;;;;;;;;;5017389;28;20424;-67
2021/04/25 09:31:27;;;;;;;36.40;22.10;;;;;;;;;;5027036;28;20474;-66
2021/04/25 09:33:55;;;;;;;0.70;0.40;;;;;;;;;;5019858;28;20890;-67
2021/04/25 09:36:22;;;;;;;0.70;0.50;;;;;;;;;;5031109;28;20470;-68
2021/04/25 09:38:48;;;;;;;0.80;0.50;;;;;;;;;;5015752;28;20903;-67
2021/04/25 09:41:28;;;;;;;0.90;0.77;;;;;;;;;;5027233;28;20500;-67
2021/04/25 09:43:54;;;;;;;1.07;0.50;;;;;;;;;;5038358;28;20407;-67
2021/04/25 09:46:20;;;;;;;0.70;0.60;;;;;;;;;;5021739;28;20425;-66
2021/04/25 09:48:47;;;;;;;0.70;0.40;;;;;;;;;;5032601;28;20477;-66
2021/04/25 09:51:24;;;;;;;0.90;0.50;;;;;;;;;;5026310;28;20539;-66
2021/04/25 09:53:50;;;;;;;0.80;0.60;;;;;;;;;;5017739;28;20517;-66
2021/04/25 09:56:18;;;;;;;0.70;0.40;;;;;;;;;;5034125;28;20416;-67
2021/04/25 09:58:56;;;;;;;0.70;0.40;;;;;;;;;;5025199;28;20416;-67
2021/04/25 10:01:41;;;;;;;0.70;0.40;;;;;;;;;;5018588;28;20432;-67
2021/04/25 10:04:27;;;;;;;0.70;0.57;;;;;;;;;;5023911;28;20428;-69
2021/04/25 10:06:54;;;;;;;0.90;0.50;;;;;;;;;;5031304;28;20481;-68
2021/04/25 10:09:20;;;;;;;1.27;0.70;;;;;;;;;;5011106;28;20505;-67
2021/04/25 10:11:50;;;;;;;0.70;0.40;;;;;;;;;;5028325;28;20541;-67
2021/04/25 10:14:16;;;;;;;0.73;0.50;;;;;;;;;;5017193;28;20907;-67
2021/04/25 10:16:42;;;;;;;1.10;0.70;;;;;;;;;;5016788;28;20406;-68
2021/04/25 10:19:12;;;;;;;1.37;1.27;;;;;;;;;;5014141;28;20375;-67
2021/04/25 10:21:39;;;;;;;0.77;0.63;;;;;;;;;;5023999;28;20909;-67
2021/04/25 10:24:06;;;;;;;0.70;0.50;;;;;;;;;;5016577;28;20423;-67
2021/04/25 10:26:34;;;;;;;0.70;0.50;;;;;;;;;;5010343;28;20447;-67
2021/04/25 10:29:02;;;;;;;0.70;0.50;;;;;;;;;;5015654;28;20749;-67
2021/04/25 10:31:35;;;;;;;1.13;0.80;;;;;;;;;;5021227;28;20511;-68
2021/04/25 10:34:08;;;;;;;1.73;0.60;;;;;;;;;;5026869;28;20430;-67
2021/04/25 10:36:54;;;;;;;0.77;0.50;;;;;;;;;;5021882;28;20974;-67
2021/04/25 10:39:33;;;;;;;0.80;0.60;;;;;;;;;;5014341;28;20399;-67
2021/04/25 10:42:19;;;;;;;0.70;0.40;;;;;;;;;;5015113;28;20944;-67
2021/04/25 10:44:57;;;;;;;0.80;0.57;;;;;;;;;;5006559;28;20933;-67
2021/04/25 10:47:29;;;;;;;0.70;0.50;;;;;;;;;;5016259;28;20368;-67
2021/04/25 10:49:59;;;;;;;0.80;0.60;;;;;;;;;;5007191;28;20472;-67
2021/04/25 10:52:28;;;;;;;0.70;0.50;;;;;;;;;;5005883;28;20964;-66
2021/04/25 10:55:17;;;;;;;0.90;0.70;;;;;;;;;;5008664;28;20434;-67
2021/04/25 10:57:52;;;;;;;1.00;0.90;;;;;;;;;;5019456;28;20416;-67
2021/04/25 11:02:57;;;;;;;0.70;0.50;;;;;;;;;;5018738;28;20431;-68
2021/04/25 11:05:36;;;;;;;1.10;0.60;;;;;;;;;;5022554;28;20440;-68
2021/04/25 11:08:02;;;;;;;0.87;0.60;;;;;;;;;;5011446;28;20402;-67
2021/04/25 11:10:47;;;;;;;0.70;0.50;;;;;;;;;;5016514;28;20381;-68
2021/04/25 11:13:32;;;;;;;0.70;0.40;;;;;;;;;;5013305;28;21978;-68
2021/04/25 11:15:59;;;;;;;0.80;0.50;;;;;;;;;;5015929;28;21069;-68
2021/04/25 11:18:44;;;;;;;0.80;0.60;;;;;;;;;;5027162;28;20421;-68
2021/04/25 11:21:45;;;;;;;1.33;0.73;;;;;;;;;;5013796;28;20475;-68
2021/04/25 11:24:12;;;;;;;0.70;0.47;;;;;;;;;;5022997;28;20386;-67
2021/04/25 11:26:41;;;;;;;1.00;0.80;;;;;;;;;;5016795;28;20473;-67
2021/04/25 11:29:07;;;;;;;0.80;0.53;;;;;;;;;;5009282;28;20404;-67
2021/04/25 11:34:26;;;;;;;0.80;0.57;;;;;;;;;;5031024;28;20835;-69
2021/04/25 11:36:52;;;;;;;0.70;0.50;;;;;;;;;;5026639;28;20547;-67
2021/04/25 11:39:19;;;;;;;2.10;1.13;;;;;;;;;;5018656;28;20407;-67
2021/04/25 11:41:45;;;;;;;0.83;0.60;;;;;;;;;;5022071;28;20904;-67
2021/04/25 11:44:11;;;;;;;0.70;0.50;;;;;;;;;;5031873;28;20426;-68
2021/04/25 11:46:38;;;;;;;59.83;54.60;;;;;;;;;;5044162;23;20952;-76
2021/04/25 11:49:05;;;;;;;17.47;5.30;;;;;;;;;;5024513;28;20450;-76
2021/04/25 11:51:32;;;;;;;0.70;0.50;;;;;;;;;;5011916;28;20426;-76
2021/04/25 11:53:58;;;;;;;0.70;0.50;;;;;;;;;;5005208;28;20411;-75
2021/04/25 11:56:25;;;;;;;4.27;0.50;;;;;;;;;;5014105;28;20392;-75
2021/04/25 11:58:51;;;;;;;0.70;0.50;;;;;;;;;;5022129;28;20435;-74
2021/04/25 12:01:23;;;;;;;0.70;0.50;;;;;;;;;;5028816;28;20435;-74
2021/04/25 12:03:49;;;;;;;0.70;0.50;;;;;;;;;;5016517;28;20413;-74
2021/04/25 12:06:16;;;;;;;1.20;0.50;;;;;;;;;;5028247;28;20887;-74
2021/04/25 12:08:52;;;;;;;3.07;1.10;;;;;;;;;;5015317;28;20681;-74
2021/04/25 12:11:25;;;;;;;0.90;0.57;;;;;;;;;;5002040;28;20457;-74
2021/04/25 12:13:51;;;;;;;0.80;0.53;;;;;;;;;;5003533;28;20391;-72
2021/04/25 12:16:18;;;;;;;0.80;0.50;;;;;;;;;;5007766;28;20500;-74
2021/04/25 12:18:44;;;;;;;1.17;0.60;;;;;;;;;;5005110;28;20391;-75
2021/04/25 12:21:30;;;;;;;0.70;0.40;;;;;;;;;;5005126;28;20454;-73
2021/04/25 12:23:58;;;;;;;0.70;0.40;;;;;;;;;;5009717;28;20413;-73
2021/04/25 12:26:25;;;;;;;0.80;0.60;;;;;;;;;;5007695;28;20909;-74
2021/04/25 12:28:52;;;;;;;0.70;0.40;;;;;;;;;;5004623;28;20787;-74
2021/04/25 12:31:19;;;;;;;0.70;0.50;;;;;;;;;;4999504;28;20442;-73
2021/04/25 12:33:46;;;;;;;0.90;0.50;;;;;;;;;;5002613;28;20798;-74
2021/04/25 12:36:13;;;;;;;1.00;0.60;;;;;;;;;;5007676;28;20383;-74
2021/04/25 12:38:43;;;;;;;0.70;0.40;;;;;;;;;;5007921;28;20371;-75
2021/04/25 12:41:13;;;;;;;0.70;0.50;;;;;;;;;;5003074;28;20413;-75
2021/04/25 12:43:48;;;;;;;0.80;0.50;;;;;;;;;;5014447;28;20390;-75
2021/04/25 12:46:15;;;;;;;1.43;0.60;;;;;;;;;;5008583;28;20482;-74
2021/04/25 12:48:42;;;;;;;0.77;0.53;;;;;;;;;;5009034;28;20385;-74
2021/04/25 12:51:22;;;;;;;1.00;0.60;;;;;;;;;;5007008;28;20445;-74
2021/04/25 12:53:52;;;;;;;1.00;0.90;;;;;;;;;;5010686;28;20433;-74
2021/04/25 12:56:19;;;;;;;0.70;0.40;;;;;;;;;;5011666;28;20401;-77
2021/04/25 12:59:00;;;;;;;0.70;0.50;;;;;;;;;;5010173;28;20500;-75
2021/04/25 13:01:27;;;;;;;1.00;0.77;;;;;;;;;;5006475;28;20399;-77
2021/04/25 13:03:52;;;;;;;1.23;1.03;;;;;;;;;;5005453;28;20390;-77
2021/04/25 13:06:29;;;;;;;0.70;0.50;;;;;;;;;;5006543;28;20424;-77
2021/04/25 13:08:56;;;;;;;0.80;0.50;;;;;;;;;;5005682;28;20412;-77
2021/04/25 13:11:38;;;;;;;2.20;0.87;;;;;;;;;;5003259;28;20467;-75
2021/04/25 13:14:11;;;;;;;0.70;0.40;;;;;;;;;;5010309;28;20406;-78
2021/04/25 13:16:38;;;;;;;1.07;0.63;;;;;;;;;;5013546;28;20395;-76
2021/04/25 13:19:07;;;;;;;0.80;0.50;;;;;;;;;;5013879;28;20415;-76
2021/04/25 13:21:42;;;;;;;1.43;1.33;;;;;;;;;;5010254;28;20495;-75
2021/04/25 13:24:14;;;;;;;0.70;0.40;;;;;;;;;;5011501;28;20400;-75
2021/04/25 13:26:43;;;;;;;0.70;0.40;;;;;;;;;;5015121;28;20406;-77
2021/04/25 13:29:20;;;;;;;0.70;0.50;;;;;;;;;;5011153;28;20845;-77
2021/04/25 13:31:49;;;;;;;0.70;0.50;;;;;;;;;;5009538;28;20950;-76
2021/04/25 13:34:15;;;;;;;0.70;0.40;;;;;;;;;;5014993;28;20447;-76
2021/04/25 13:36:42;;;;;;;1.30;0.70;;;;;;;;;;5014055;28;20395;-77
2021/04/25 13:39:10;;;;;;;0.90;0.60;;;;;;;;;;5011237;28;20402;-75
2021/04/25 13:41:41;;;;;;;0.90;0.50;;;;;;;;;;5011504;28;20424;-76
2021/04/25 13:44:07;;;;;;;1.03;0.60;;;;;;;;;;5013018;28;20854;-76
2021/04/25 13:46:33;;;;;;;0.80;0.50;;;;;;;;;;5016139;28;20394;-76
2021/04/25 13:48:59;;;;;;;0.83;0.63;;;;;;;;;;5011014;28;20400;-76
2021/04/25 13:51:26;;;;;;;0.70;0.50;;;;;;;;;;5009717;28;20951;-78
2021/04/25 13:53:54;;;;;;;0.70;0.60;;;;;;;;;;5011102;28;20372;-75
2021/04/25 13:56:20;;;;;;;0.70;0.50;;;;;;;;;;5014736;28;20371;-76
2021/04/25 13:58:46;;;;;;;0.80;0.77;;;;;;;;;;5016307;28;20396;-75
2021/04/25 14:01:14;;;;;;;0.90;0.50;;;;;;;;;;5010783;28;20923;-76
2021/04/25 14:03:40;;;;;;;0.80;0.50;;;;;;;;;;5009530;28;20392;-75
2021/04/25 14:06:08;;;;;;;0.70;0.50;;;;;;;;;;5013796;28;20946;-77
2021/04/25 14:08:35;;;;;;;2.87;0.60;;;;;;;;;;5031421;28;20412;-76
2021/04/25 14:11:03;;;;;;;1.03;0.60;;;;;;;;;;5023577;28;20434;-74
2021/04/25 14:13:29;;;;;;;0.70;0.60;;;;;;;;;;5023948;28;20406;-74
2021/04/25 14:15:55;;;;;;;1.00;0.77;;;;;;;;;;5031784;28;20951;-75
2021/04/25 14:18:21;;;;;;;8.43;0.83;;;;;;;;;;5018715;28;20380;-74
2021/04/25 14:20:47;;;;;;;1.30;0.60;;;;;;;;;;5030170;28;20445;-74
2021/04/25 14:23:13;;;;;;;1.27;1.17;;;;;;;;;;5025389;28;20405;-74
2021/04/25 14:25:39;;;;;;;0.70;0.40;;;;;;;;;;5024156;28;20408;-75
2021/04/25 14:28:05;;;;;;;0.70;0.50;;;;;;;;;;5029292;28;20379;-74
2021/04/25 14:30:34;;;;;;;0.70;0.40;;;;;;;;;;5000757;28;20371;-74
2021/04/25 14:33:01;;;;;;;0.70;0.50;;;;;;;;;;5025889;28;20395;-75
2021/04/25 14:35:28;;;;;;;1.33;0.60;;;;;;;;;;5024644;28;20379;-75
2021/04/25 14:37:55;;;;;;;0.70;0.50;;;;;;;;;;5017344;28;20775;-75
2021/04/25 14:40:21;;;;;;;0.70;0.40;;;;;;;;;;5029466;28;20381;-76
2021/04/25 14:42:48;;;;;;;0.90;0.60;;;;;;;;;;5019491;28;21045;-75
2021/04/25 14:45:17;;;;;;;0.90;0.60;;;;;;;;;;5023848;28;20405;-74
2021/04/25 14:47:44;;;;;;;0.80;0.53;;;;;;;;;;5026289;28;20405;-76
2021/04/25 14:50:12;;;;;;;0.70;0.50;;;;;;;;;;5002873;28;20427;-74